Atlantic Nyala — 9HYD9 — position and weather

sailwx.info

Track history (hours):
 
Tides and Currents Weather Stations Pressure Air Temp Water Temp Dewpoint Dewpoint Depression Visibility Wind Speed Wind Dir Waves Ship Positions

Atlantic Nyala

Last reported at 2015-Apr-10 11:33 UTC. Time now 2015-Apr-21 08:18 UTC.
Position N 26°24' W 079°39'.
Warning: this ship's position is 10 days out of date.

Length 173 m; draft 7.6 m.

Type: Ship. MMSI: 249692000.

Date/timePositionNaut miles runAvg speedWind from/ knotsBaromVisibWave heightAir tempDewpointWater temp
2015-Apr-10 11:33N 26°24' W 079°39'1818.4
2015-Apr-10 10:33N 26°05' W 079°40'1818.2
2015-Apr-10 09:33N 25°47' W 079°42'57111.4
2015-Apr-08 07:28N 29°27' W 089°36'3010.2
2015-Apr-08 04:33N 29°52' W 089°55'7 3.6
2015-Apr-08 02:31N 29°57' W 090°01'0 0.0
2015-Apr-08 01:28N 29°57' W 090°01'0 0.0
2015-Apr-08 00:28N 29°57' W 090°01'0 0.0
2015-Apr-07 23:28N 29°57' W 090°01'0 0.0
2015-Apr-07 22:25N 29°57' W 090°01'0 0.0
2015-Apr-07 21:28N 29°57' W 090°01'0 0.0
2015-Apr-07 20:25N 29°57' W 090°01'0 0.0
2015-Apr-07 19:07N 29°57' W 090°01'0 0.0
2015-Apr-07 12:16N 29°57' W 090°01'0 0.0
2015-Apr-07 11:28N 29°57' W 090°01'0 0.0
2015-Apr-06 19:10N 29°57' W 090°01'0 0.0
2015-Apr-06 13:25N 29°57' W 090°01'0 0.0
2015-Apr-06 11:25N 29°57' W 090°01'0 0.0
2015-Apr-06 09:32N 29°57' W 090°01'0 0.0
2015-Apr-06 08:33N 29°57' W 090°01'0 0.0
2015-Apr-06 07:32N 29°57' W 090°01'0 0.0
2015-Apr-06 06:32N 29°57' W 090°01'2 1.6
2015-Apr-06 05:31N 29°56' W 089°60'5 4.3
2015-Apr-06 04:26N 29°52' W 089°56'9 7.4
2015-Apr-06 03:12N 29°44' W 089°60'  
2015-Apr-02 03:24N 27°11' W 086°60'1 1.4
2015-Apr-02 02:24N 27°10' W 086°59'3 1.4
2015-Apr-02 00:33N 27°08' W 086°58'  
Track history (hours):
 
Tides and Currents Weather Stations Pressure Air Temp Water Temp Dewpoint Dewpoint Depression Visibility Wind Speed Wind Dir Waves Ship Positions

Atlantic Nyala

Last reported at 2015-Apr-10 11:33 UTC. Time now 2015-Apr-21 08:18 UTC.
Position N 26°24' W 079°39'.
Warning: this ship's position is 10 days out of date.

Length 173 m; draft 7.6 m.

Type: Ship. MMSI: 249692000.

Date/timePositionNaut miles runAvg speedWind from/ knotsBaromVisibWave heightAir tempDewpointWater temp
2015-Apr-10 11:33N 26°24' W 079°39'1818.4
2015-Apr-10 10:33N 26°05' W 079°40'1818.2
2015-Apr-10 09:33N 25°47' W 079°42'57111.4
2015-Apr-08 07:28N 29°27' W 089°36'3010.2
2015-Apr-08 04:33N 29°52' W 089°55'7 3.6
2015-Apr-08 02:31N 29°57' W 090°01'0 0.0
2015-Apr-08 01:28N 29°57' W 090°01'0 0.0
2015-Apr-08 00:28N 29°57' W 090°01'0 0.0
2015-Apr-07 23:28N 29°57' W 090°01'0 0.0
2015-Apr-07 22:25N 29°57' W 090°01'0 0.0
2015-Apr-07 21:28N 29°57' W 090°01'0 0.0
2015-Apr-07 20:25N 29°57' W 090°01'0 0.0
2015-Apr-07 19:07N 29°57' W 090°01'0 0.0
2015-Apr-07 12:16N 29°57' W 090°01'0 0.0
2015-Apr-07 11:28N 29°57' W 090°01'0 0.0
2015-Apr-06 19:10N 29°57' W 090°01'0 0.0
2015-Apr-06 13:25N 29°57' W 090°01'0 0.0
2015-Apr-06 11:25N 29°57' W 090°01'0 0.0
2015-Apr-06 09:32N 29°57' W 090°01'0 0.0
2015-Apr-06 08:33N 29°57' W 090°01'0 0.0
2015-Apr-06 07:32N 29°57' W 090°01'0 0.0
2015-Apr-06 06:32N 29°57' W 090°01'2 1.6
2015-Apr-06 05:31N 29°56' W 089°60'5 4.3
2015-Apr-06 04:26N 29°52' W 089°56'9 7.4
2015-Apr-06 03:12N 29°44' W 089°60'  
2015-Apr-02 03:24N 27°11' W 086°60'1 1.4
2015-Apr-02 02:24N 27°10' W 086°59'3 1.4
2015-Apr-02 00:33N 27°08' W 086°58'  

Dump ship's entire track history